sensor_id;sensor_type;location;lat;lon;timestamp;temperature;humidity
53045;DHT22;38930;52.766;6.884;2023-06-10T00:01:29;18.60;99.00
53045;DHT22;38930;52.766;6.884;2023-06-10T00:03:55;18.60;98.90
53045;DHT22;38930;52.766;6.884;2023-06-10T00:06:21;18.60;99.60
53045;DHT22;38930;52.766;6.884;2023-06-10T00:08:50;18.50;99.50
53045;DHT22;38930;52.766;6.884;2023-06-10T00:11:15;18.50;99.80
53045;DHT22;38930;52.766;6.884;2023-06-10T00:13:41;18.40;99.90
53045;DHT22;38930;52.766;6.884;2023-06-10T00:16:07;18.40;99.90
53045;DHT22;38930;52.766;6.884;2023-06-10T00:18:32;18.40;99.90
53045;DHT22;38930;52.766;6.884;2023-06-10T00:20:58;18.40;99.90
53045;DHT22;38930;52.766;6.884;2023-06-10T00:23:30;18.40;99.90
53045;DHT22;38930;52.766;6.884;2023-06-10T00:26:03;18.30;99.90
53045;DHT22;38930;52.766;6.884;2023-06-10T00:28:28;18.30;99.90
53045;DHT22;38930;52.766;6.884;2023-06-10T00:30:54;18.30;99.90
53045;DHT22;38930;52.766;6.884;2023-06-10T00:33:20;18.20;99.90
53045;DHT22;38930;52.766;6.884;2023-06-10T00:35:46;18.20;99.90
53045;DHT22;38930;52.766;6.884;2023-06-10T00:38:13;18.10;99.90
53045;DHT22;38930;52.766;6.884;2023-06-10T00:40:40;18.10;99.90
53045;DHT22;38930;52.766;6.884;2023-06-10T00:43:06;18.00;99.90
53045;DHT22;38930;52.766;6.884;2023-06-10T00:45:33;18.00;99.90
53045;DHT22;38930;52.766;6.884;2023-06-10T00:48:00;18.00;99.90
53045;DHT22;38930;52.766;6.884;2023-06-10T00:50:26;18.00;99.90
53045;DHT22;38930;52.766;6.884;2023-06-10T00:52:56;17.90;99.90
53045;DHT22;38930;52.766;6.884;2023-06-10T00:55:22;17.80;99.90
53045;DHT22;38930;52.766;6.884;2023-06-10T00:57:48;17.80;99.90
53045;DHT22;38930;52.766;6.884;2023-06-10T01:00:15;17.80;99.90
53045;DHT22;38930;52.766;6.884;2023-06-10T01:02:41;17.80;99.90
53045;DHT22;38930;52.766;6.884;2023-06-10T01:05:08;17.80;99.90
53045;DHT22;38930;52.766;6.884;2023-06-10T01:07:43;17.80;99.90
53045;DHT22;38930;52.766;6.884;2023-06-10T01:10:24;17.80;99.90
53045;DHT22;38930;52.766;6.884;2023-06-10T01:15:22;17.70;99.90
53045;DHT22;38930;52.766;6.884;2023-06-10T01:18:08;17.70;99.90
53045;DHT22;38930;52.766;6.884;2023-06-10T01:20:43;17.70;99.90
53045;DHT22;38930;52.766;6.884;2023-06-10T01:23:10;17.60;99.90
53045;DHT22;38930;52.766;6.884;2023-06-10T01:25:37;17.60;99.90
53045;DHT22;38930;52.766;6.884;2023-06-10T01:33:46;17.40;99.90
53045;DHT22;38930;52.766;6.884;2023-06-10T01:36:13;17.40;99.90
53045;DHT22;38930;52.766;6.884;2023-06-10T01:38:43;17.50;99.90
53045;DHT22;38930;52.766;6.884;2023-06-10T01:41:11;17.30;99.90
53045;DHT22;38930;52.766;6.884;2023-06-10T01:43:38;17.20;99.90
53045;DHT22;38930;52.766;6.884;2023-06-10T01:46:04;17.20;99.90
53045;DHT22;38930;52.766;6.884;2023-06-10T01:48:30;17.20;99.90
53045;DHT22;38930;52.766;6.884;2023-06-10T01:50:55;17.10;99.90
53045;DHT22;38930;52.766;6.884;2023-06-10T01:53:22;17.10;99.90
53045;DHT22;38930;52.766;6.884;2023-06-10T01:55:47;17.00;99.90
53045;DHT22;38930;52.766;6.884;2023-06-10T01:58:13;16.90;99.90
53045;DHT22;38930;52.766;6.884;2023-06-10T02:00:39;16.90;99.90
53045;DHT22;38930;52.766;6.884;2023-06-10T02:03:05;16.90;99.90
53045;DHT22;38930;52.766;6.884;2023-06-10T02:05:31;16.80;99.90
53045;DHT22;38930;52.766;6.884;2023-06-10T02:07:57;16.80;99.90
53045;DHT22;38930;52.766;6.884;2023-06-10T02:10:23;16.80;99.90
53045;DHT22;38930;52.766;6.884;2023-06-10T02:12:49;16.70;99.90
53045;DHT22;38930;52.766;6.884;2023-06-10T02:15:14;16.70;99.90
53045;DHT22;38930;52.766;6.884;2023-06-10T02:17:40;16.70;99.90
53045;DHT22;38930;52.766;6.884;2023-06-10T02:20:06;16.60;99.90
53045;DHT22;38930;52.766;6.884;2023-06-10T02:22:32;16.60;99.90
53045;DHT22;38930;52.766;6.884;2023-06-10T02:24:58;16.50;99.90
53045;DHT22;38930;52.766;6.884;2023-06-10T02:27:23;16.60;99.90
53045;DHT22;38930;52.766;6.884;2023-06-10T02:29:50;16.50;99.90
53045;DHT22;38930;52.766;6.884;2023-06-10T02:32:15;16.50;99.90
53045;DHT22;38930;52.766;6.884;2023-06-10T02:34:41;16.40;99.90
53045;DHT22;38930;52.766;6.884;2023-06-10T02:37:09;16.40;99.90
53045;DHT22;38930;52.766;6.884;2023-06-10T02:39:35;16.30;99.90
53045;DHT22;38930;52.766;6.884;2023-06-10T02:42:00;16.30;99.90
53045;DHT22;38930;52.766;6.884;2023-06-10T02:44:26;16.20;99.90
53045;DHT22;38930;52.766;6.884;2023-06-10T02:46:51;16.20;99.90
53045;DHT22;38930;52.766;6.884;2023-06-10T02:49:17;16.10;99.90
53045;DHT22;38930;52.766;6.884;2023-06-10T02:51:43;16.10;99.90
53045;DHT22;38930;52.766;6.884;2023-06-10T02:54:08;16.10;99.90
53045;DHT22;38930;52.766;6.884;2023-06-10T02:56:34;16.00;99.90
53045;DHT22;38930;52.766;6.884;2023-06-10T02:59:00;16.00;99.90
53045;DHT22;38930;52.766;6.884;2023-06-10T03:01:25;15.90;99.90
53045;DHT22;38930;52.766;6.884;2023-06-10T03:03:51;15.90;99.90
53045;DHT22;38930;52.766;6.884;2023-06-10T03:06:18;15.90;99.90
53045;DHT22;38930;52.766;6.884;2023-06-10T03:08:44;15.90;99.90
53045;DHT22;38930;52.766;6.884;2023-06-10T03:11:11;15.80;99.90
53045;DHT22;38930;52.766;6.884;2023-06-10T03:13:38;15.80;99.90
53045;DHT22;38930;52.766;6.884;2023-06-10T03:16:03;15.80;99.90
53045;DHT22;38930;52.766;6.884;2023-06-10T03:18:30;15.80;99.90
53045;DHT22;38930;52.766;6.884;2023-06-10T03:20:55;15.80;99.90
53045;DHT22;38930;52.766;6.884;2023-06-10T03:23:22;15.70;99.90
53045;DHT22;38930;52.766;6.884;2023-06-10T03:25:48;15.70;99.90
53045;DHT22;38930;52.766;6.884;2023-06-10T03:28:14;15.60;99.90
53045;DHT22;38930;52.766;6.884;2023-06-10T03:30:40;15.70;99.90
53045;DHT22;38930;52.766;6.884;2023-06-10T03:33:05;15.60;99.90
53045;DHT22;38930;52.766;6.884;2023-06-10T03:35:31;15.50;99.90
53045;DHT22;38930;52.766;6.884;2023-06-10T03:38:00;15.50;99.90
53045;DHT22;38930;52.766;6.884;2023-06-10T03:40:25;15.50;99.90
53045;DHT22;38930;52.766;6.884;2023-06-10T03:42:51;15.50;99.90
53045;DHT22;38930;52.766;6.884;2023-06-10T03:45:17;15.60;99.90
53045;DHT22;38930;52.766;6.884;2023-06-10T03:47:43;15.50;99.90
53045;DHT22;38930;52.766;6.884;2023-06-10T03:50:09;15.60;99.90
53045;DHT22;38930;52.766;6.884;2023-06-10T03:52:36;15.50;99.90
53045;DHT22;38930;52.766;6.884;2023-06-10T03:55:02;15.50;99.90
53045;DHT22;38930;52.766;6.884;2023-06-10T03:57:27;15.50;99.90
53045;DHT22;38930;52.766;6.884;2023-06-10T03:59:54;15.60;99.90
53045;DHT22;38930;52.766;6.884;2023-06-10T04:02:20;15.60;99.90
53045;DHT22;38930;52.766;6.884;2023-06-10T04:04:46;15.60;99.90
53045;DHT22;38930;52.766;6.884;2023-06-10T04:07:12;15.60;99.90
53045;DHT22;38930;52.766;6.884;2023-06-10T04:09:39;15.60;99.90
53045;DHT22;38930;52.766;6.884;2023-06-10T04:12:05;15.50;99.90
53045;DHT22;38930;52.766;6.884;2023-06-10T04:14:34;15.50;99.90
53045;DHT22;38930;52.766;6.884;2023-06-10T04:17:01;15.50;99.90
53045;DHT22;38930;52.766;6.884;2023-06-10T04:19:27;15.40;99.90
53045;DHT22;38930;52.766;6.884;2023-06-10T04:21:53;15.40;99.90
53045;DHT22;38930;52.766;6.884;2023-06-10T04:24:19;15.40;99.90
53045;DHT22;38930;52.766;6.884;2023-06-10T04:26:45;15.40;99.90
53045;DHT22;38930;52.766;6.884;2023-06-10T04:29:10;15.40;99.90
53045;DHT22;38930;52.766;6.884;2023-06-10T04:31:36;15.40;99.90
53045;DHT22;38930;52.766;6.884;2023-06-10T04:34:02;15.40;99.90
53045;DHT22;38930;52.766;6.884;2023-06-10T04:36:27;15.40;99.90
53045;DHT22;38930;52.766;6.884;2023-06-10T04:38:55;15.40;99.90
53045;DHT22;38930;52.766;6.884;2023-06-10T04:41:21;15.40;99.90
53045;DHT22;38930;52.766;6.884;2023-06-10T04:43:47;15.40;99.90
53045;DHT22;38930;52.766;6.884;2023-06-10T04:46:13;15.50;99.90
53045;DHT22;38930;52.766;6.884;2023-06-10T04:48:39;15.50;99.90
53045;DHT22;38930;52.766;6.884;2023-06-10T04:51:04;15.50;99.90
53045;DHT22;38930;52.766;6.884;2023-06-10T04:53:30;15.60;99.90
53045;DHT22;38930;52.766;6.884;2023-06-10T04:55:57;15.50;99.90
53045;DHT22;38930;52.766;6.884;2023-06-10T04:58:23;15.50;99.90
53045;DHT22;38930;52.766;6.884;2023-06-10T05:00:49;15.50;99.90
53045;DHT22;38930;52.766;6.884;2023-06-10T05:03:14;15.50;99.90
53045;DHT22;38930;52.766;6.884;2023-06-10T05:05:40;15.70;99.90
53045;DHT22;38930;52.766;6.884;2023-06-10T05:08:06;15.60;99.90
53045;DHT22;38930;52.766;6.884;2023-06-10T05:10:31;15.60;99.90
53045;DHT22;38930;52.766;6.884;2023-06-10T05:12:58;15.60;99.90
53045;DHT22;38930;52.766;6.884;2023-06-10T05:15:24;15.70;99.90
53045;DHT22;38930;52.766;6.884;2023-06-10T05:17:49;15.70;99.90
53045;DHT22;38930;52.766;6.884;2023-06-10T05:20:15;15.70;99.90
53045;DHT22;38930;52.766;6.884;2023-06-10T05:22:41;15.90;99.90
53045;DHT22;38930;52.766;6.884;2023-06-10T05:25:07;16.10;99.90
53045;DHT22;38930;52.766;6.884;2023-06-10T05:27:32;16.30;99.90
53045;DHT22;38930;52.766;6.884;2023-06-10T05:29:58;16.60;99.90
53045;DHT22;38930;52.766;6.884;2023-06-10T05:32:24;16.90;99.90
53045;DHT22;38930;52.766;6.884;2023-06-10T05:34:50;17.20;99.90
53045;DHT22;38930;52.766;6.884;2023-06-10T05:37:15;17.50;99.90
53045;DHT22;38930;52.766;6.884;2023-06-10T05:39:41;17.80;99.90
53045;DHT22;38930;52.766;6.884;2023-06-10T05:42:07;18.20;99.90
53045;DHT22;38930;52.766;6.884;2023-06-10T05:44:33;18.40;99.90
53045;DHT22;38930;52.766;6.884;2023-06-10T05:46:59;18.60;99.90
53045;DHT22;38930;52.766;6.884;2023-06-10T05:49:25;18.80;99.90
53045;DHT22;38930;52.766;6.884;2023-06-10T05:51:50;19.00;99.90
53045;DHT22;38930;52.766;6.884;2023-06-10T05:54:18;19.10;99.90
53045;DHT22;38930;52.766;6.884;2023-06-10T05:56:44;19.20;99.90
53045;DHT22;38930;52.766;6.884;2023-06-10T05:59:09;19.30;99.90
53045;DHT22;38930;52.766;6.884;2023-06-10T06:01:35;19.40;99.90
53045;DHT22;38930;52.766;6.884;2023-06-10T06:04:01;19.60;99.90
53045;DHT22;38930;52.766;6.884;2023-06-10T06:06:26;19.70;99.90
53045;DHT22;38930;52.766;6.884;2023-06-10T06:08:52;19.80;99.90
53045;DHT22;38930;52.766;6.884;2023-06-10T06:11:17;19.80;99.90
53045;DHT22;38930;52.766;6.884;2023-06-10T06:13:43;19.90;99.90
53045;DHT22;38930;52.766;6.884;2023-06-10T06:16:09;20.10;99.90
53045;DHT22;38930;52.766;6.884;2023-06-10T06:18:34;20.20;99.90
53045;DHT22;38930;52.766;6.884;2023-06-10T06:21:00;20.20;99.90
53045;DHT22;38930;52.766;6.884;2023-06-10T06:23:25;20.10;99.90
53045;DHT22;38930;52.766;6.884;2023-06-10T06:25:51;20.00;99.90
53045;DHT22;38930;52.766;6.884;2023-06-10T06:28:17;20.00;99.90
53045;DHT22;38930;52.766;6.884;2023-06-10T06:30:44;20.00;99.90
53045;DHT22;38930;52.766;6.884;2023-06-10T06:33:10;20.00;99.90
53045;DHT22;38930;52.766;6.884;2023-06-10T06:35:35;20.00;99.90
53045;DHT22;38930;52.766;6.884;2023-06-10T06:38:01;20.10;99.90
53045;DHT22;38930;52.766;6.884;2023-06-10T06:40:27;20.10;99.90
53045;DHT22;38930;52.766;6.884;2023-06-10T06:42:52;20.20;99.90
53045;DHT22;38930;52.766;6.884;2023-06-10T06:45:18;20.20;99.90
53045;DHT22;38930;52.766;6.884;2023-06-10T06:47:43;20.20;99.90
53045;DHT22;38930;52.766;6.884;2023-06-10T06:50:09;20.10;99.90
53045;DHT22;38930;52.766;6.884;2023-06-10T06:52:35;20.10;99.90
53045;DHT22;38930;52.766;6.884;2023-06-10T06:55:01;20.20;99.90
53045;DHT22;38930;52.766;6.884;2023-06-10T06:57:26;20.10;99.90
53045;DHT22;38930;52.766;6.884;2023-06-10T06:59:52;20.20;99.90
53045;DHT22;38930;52.766;6.884;2023-06-10T07:02:18;20.20;99.90
53045;DHT22;38930;52.766;6.884;2023-06-10T07:04:44;20.40;99.90
53045;DHT22;38930;52.766;6.884;2023-06-10T07:07:11;20.60;99.90
53045;DHT22;38930;52.766;6.884;2023-06-10T07:09:37;20.70;99.90
53045;DHT22;38930;52.766;6.884;2023-06-10T07:12:03;21.00;99.90
53045;DHT22;38930;52.766;6.884;2023-06-10T07:14:29;21.30;99.90
53045;DHT22;38930;52.766;6.884;2023-06-10T07:16:55;21.40;99.90
53045;DHT22;38930;52.766;6.884;2023-06-10T07:19:20;21.50;99.90
53045;DHT22;38930;52.766;6.884;2023-06-10T07:21:46;21.70;99.90
53045;DHT22;38930;52.766;6.884;2023-06-10T07:24:11;21.60;99.90
53045;DHT22;38930;52.766;6.884;2023-06-10T07:26:37;21.50;99.90
53045;DHT22;38930;52.766;6.884;2023-06-10T07:29:03;21.70;99.90
53045;DHT22;38930;52.766;6.884;2023-06-10T07:31:28;21.80;99.90
53045;DHT22;38930;52.766;6.884;2023-06-10T07:33:54;21.90;99.90
53045;DHT22;38930;52.766;6.884;2023-06-10T07:36:20;22.00;99.90
53045;DHT22;38930;52.766;6.884;2023-06-10T07:38:45;21.90;99.90
53045;DHT22;38930;52.766;6.884;2023-06-10T07:41:11;22.00;99.90
53045;DHT22;38930;52.766;6.884;2023-06-10T07:43:37;22.10;99.90
53045;DHT22;38930;52.766;6.884;2023-06-10T07:46:03;22.10;99.90
53045;DHT22;38930;52.766;6.884;2023-06-10T07:48:30;22.10;99.90
53045;DHT22;38930;52.766;6.884;2023-06-10T07:50:56;22.00;99.90
53045;DHT22;38930;52.766;6.884;2023-06-10T07:53:22;22.20;99.90
53045;DHT22;38930;52.766;6.884;2023-06-10T07:55:47;22.20;99.90
53045;DHT22;38930;52.766;6.884;2023-06-10T07:58:13;22.40;99.90
53045;DHT22;38930;52.766;6.884;2023-06-10T08:00:39;22.50;99.90
53045;DHT22;38930;52.766;6.884;2023-06-10T08:03:04;22.60;99.90
53045;DHT22;38930;52.766;6.884;2023-06-10T08:05:30;22.60;99.90
53045;DHT22;38930;52.766;6.884;2023-06-10T08:07:56;22.50;99.90
53045;DHT22;38930;52.766;6.884;2023-06-10T08:10:21;22.40;99.90
53045;DHT22;38930;52.766;6.884;2023-06-10T08:12:47;22.50;99.90
53045;DHT22;38930;52.766;6.884;2023-06-10T08:15:12;22.50;99.90
53045;DHT22;38930;52.766;6.884;2023-06-10T08:17:38;22.40;99.90
53045;DHT22;38930;52.766;6.884;2023-06-10T08:20:05;22.40;99.90
53045;DHT22;38930;52.766;6.884;2023-06-10T08:22:31;22.60;99.90
53045;DHT22;38930;52.766;6.884;2023-06-10T08:24:57;22.80;99.90
53045;DHT22;38930;52.766;6.884;2023-06-10T08:27:23;23.00;99.90
53045;DHT22;38930;52.766;6.884;2023-06-10T08:29:48;23.20;99.90
53045;DHT22;38930;52.766;6.884;2023-06-10T08:32:14;23.40;99.90
53045;DHT22;38930;52.766;6.884;2023-06-10T08:34:40;23.40;99.90
53045;DHT22;38930;52.766;6.884;2023-06-10T08:37:06;23.50;99.90
53045;DHT22;38930;52.766;6.884;2023-06-10T08:39:32;23.60;99.90
53045;DHT22;38930;52.766;6.884;2023-06-10T08:44:42;23.80;99.90
53045;DHT22;38930;52.766;6.884;2023-06-10T08:47:13;24.00;99.90
53045;DHT22;38930;52.766;6.884;2023-06-10T08:49:43;24.10;99.90
53045;DHT22;38930;52.766;6.884;2023-06-10T08:52:17;24.30;99.90
53045;DHT22;38930;52.766;6.884;2023-06-10T08:55:11;24.30;99.90
53045;DHT22;38930;52.766;6.884;2023-06-10T08:57:35;24.40;99.90
53045;DHT22;38930;52.766;6.884;2023-06-10T09:00:01;24.50;99.90
53045;DHT22;38930;52.766;6.884;2023-06-10T09:02:28;24.60;99.90
53045;DHT22;38930;52.766;6.884;2023-06-10T09:04:56;24.60;99.90
53045;DHT22;38930;52.766;6.884;2023-06-10T09:07:23;24.70;99.10
53045;DHT22;38930;52.766;6.884;2023-06-10T09:09:49;24.70;99.20
53045;DHT22;38930;52.766;6.884;2023-06-10T09:12:15;24.80;99.60
53045;DHT22;38930;52.766;6.884;2023-06-10T09:14:42;24.80;99.80
53045;DHT22;38930;52.766;6.884;2023-06-10T09:17:07;25.00;99.00
53045;DHT22;38930;52.766;6.884;2023-06-10T09:19:33;25.10;98.80
53045;DHT22;38930;52.766;6.884;2023-06-10T09:22:01;25.10;98.40
53045;DHT22;38930;52.766;6.884;2023-06-10T09:24:27;25.20;98.90
53045;DHT22;38930;52.766;6.884;2023-06-10T09:27:03;25.30;98.60
53045;DHT22;38930;52.766;6.884;2023-06-10T09:29:29;25.40;99.30
53045;DHT22;38930;52.766;6.884;2023-06-10T09:31:55;25.50;98.40
53045;DHT22;38930;52.766;6.884;2023-06-10T09:34:25;25.50;98.70
53045;DHT22;38930;52.766;6.884;2023-06-10T09:36:51;25.70;98.00
53045;DHT22;38930;52.766;6.884;2023-06-10T09:39:17;25.70;98.00
53045;DHT22;38930;52.766;6.884;2023-06-10T09:41:45;25.70;97.70
53045;DHT22;38930;52.766;6.884;2023-06-10T09:44:19;25.80;97.30
53045;DHT22;38930;52.766;6.884;2023-06-10T09:46:46;25.80;96.10
53045;DHT22;38930;52.766;6.884;2023-06-10T09:49:12;26.00;96.90
53045;DHT22;38930;52.766;6.884;2023-06-10T09:51:52;26.10;96.00
53045;DHT22;38930;52.766;6.884;2023-06-10T09:54:18;26.20;95.70
53045;DHT22;38930;52.766;6.884;2023-06-10T09:56:51;26.30;95.50
53045;DHT22;38930;52.766;6.884;2023-06-10T09:59:29;26.30;95.10
53045;DHT22;38930;52.766;6.884;2023-06-10T10:01:58;26.40;94.20
53045;DHT22;38930;52.766;6.884;2023-06-10T10:04:24;26.30;94.30
53045;DHT22;38930;52.766;6.884;2023-06-10T10:06:50;26.30;94.50
53045;DHT22;38930;52.766;6.884;2023-06-10T10:09:16;26.30;92.80
53045;DHT22;38930;52.766;6.884;2023-06-10T10:11:43;26.30;92.80
53045;DHT22;38930;52.766;6.884;2023-06-10T10:14:10;26.30;91.80
53045;DHT22;38930;52.766;6.884;2023-06-10T10:16:37;26.40;92.70
53045;DHT22;38930;52.766;6.884;2023-06-10T10:19:22;26.50;90.90
53045;DHT22;38930;52.766;6.884;2023-06-10T10:22:00;26.60;91.20
53045;DHT22;38930;52.766;6.884;2023-06-10T10:24:34;26.70;91.50
53045;DHT22;38930;52.766;6.884;2023-06-10T10:27:04;26.80;91.80
53045;DHT22;38930;52.766;6.884;2023-06-10T10:29:39;26.90;92.00
53045;DHT22;38930;52.766;6.884;2023-06-10T10:32:06;27.10;91.90
53045;DHT22;38930;52.766;6.884;2023-06-10T10:37:23;27.40;88.20
53045;DHT22;38930;52.766;6.884;2023-06-10T10:39:49;27.50;86.80
53045;DHT22;38930;52.766;6.884;2023-06-10T10:42:16;27.40;88.80
53045;DHT22;38930;52.766;6.884;2023-06-10T10:44:42;27.50;87.60
53045;DHT22;38930;52.766;6.884;2023-06-10T10:47:09;27.60;87.10
53045;DHT22;38930;52.766;6.884;2023-06-10T10:49:37;27.50;86.60
53045;DHT22;38930;52.766;6.884;2023-06-10T10:52:04;27.50;85.00
53045;DHT22;38930;52.766;6.884;2023-06-10T10:54:35;27.50;85.70
53045;DHT22;38930;52.766;6.884;2023-06-10T11:04:57;27.90;79.10
53045;DHT22;38930;52.766;6.884;2023-06-10T11:07:25;27.90;81.00
53045;DHT22;38930;52.766;6.884;2023-06-10T11:10:02;28.00;77.80
53045;DHT22;38930;52.766;6.884;2023-06-10T11:12:54;28.00;78.90
53045;DHT22;38930;52.766;6.884;2023-06-10T11:15:23;28.00;81.10
53045;DHT22;38930;52.766;6.884;2023-06-10T11:33:55;28.70;75.00
53045;DHT22;38930;52.766;6.884;2023-06-10T11:36:22;28.70;73.20
53045;DHT22;38930;52.766;6.884;2023-06-10T11:38:48;28.80;72.60
53045;DHT22;38930;52.766;6.884;2023-06-10T11:41:14;28.80;71.60
53045;DHT22;38930;52.766;6.884;2023-06-10T11:43:45;28.90;70.00
53045;DHT22;38930;52.766;6.884;2023-06-10T11:46:15;29.00;71.80
53045;DHT22;38930;52.766;6.884;2023-06-10T11:48:57;29.20;73.70
53045;DHT22;38930;52.766;6.884;2023-06-10T11:51:32;29.20;70.50
53045;DHT22;38930;52.766;6.884;2023-06-10T11:53:58;29.20;72.20
53045;DHT22;38930;52.766;6.884;2023-06-10T11:56:27;29.30;72.60
53045;DHT22;38930;52.766;6.884;2023-06-10T11:58:59;29.30;71.30
53045;DHT22;38930;52.766;6.884;2023-06-10T12:01:29;29.30;69.90
53045;DHT22;38930;52.766;6.884;2023-06-10T12:06:25;29.40;69.10
53045;DHT22;38930;52.766;6.884;2023-06-10T12:08:51;29.40;69.70
53045;DHT22;38930;52.766;6.884;2023-06-10T12:11:16;29.30;70.10
53045;DHT22;38930;52.766;6.884;2023-06-10T12:13:49;29.40;69.90
53045;DHT22;38930;52.766;6.884;2023-06-10T12:16:16;29.30;70.10
53045;DHT22;38930;52.766;6.884;2023-06-10T12:18:45;29.30;71.70
53045;DHT22;38930;52.766;6.884;2023-06-10T12:21:18;29.40;73.50
53045;DHT22;38930;52.766;6.884;2023-06-10T12:24:07;29.50;71.50
53045;DHT22;38930;52.766;6.884;2023-06-10T12:26:41;29.70;71.90
53045;DHT22;38930;52.766;6.884;2023-06-10T12:31:58;29.80;64.70
53045;DHT22;38930;52.766;6.884;2023-06-10T12:34:31;29.90;68.70
53045;DHT22;38930;52.766;6.884;2023-06-10T12:36:56;30.00;68.90
53045;DHT22;38930;52.766;6.884;2023-06-10T12:39:22;30.00;69.40
53045;DHT22;38930;52.766;6.884;2023-06-10T12:41:48;30.10;69.40
53045;DHT22;38930;52.766;6.884;2023-06-10T12:44:15;30.10;65.30
53045;DHT22;38930;52.766;6.884;2023-06-10T12:46:40;30.10;65.30
53045;DHT22;38930;52.766;6.884;2023-06-10T12:49:06;30.30;63.60
53045;DHT22;38930;52.766;6.884;2023-06-10T12:51:31;30.30;62.60
53045;DHT22;38930;52.766;6.884;2023-06-10T12:53:57;30.30;64.10
53045;DHT22;38930;52.766;6.884;2023-06-10T12:56:23;30.20;64.50
53045;DHT22;38930;52.766;6.884;2023-06-10T12:58:49;30.30;63.90
53045;DHT22;38930;52.766;6.884;2023-06-10T13:01:14;30.30;63.80
53045;DHT22;38930;52.766;6.884;2023-06-10T13:03:40;30.30;63.80
53045;DHT22;38930;52.766;6.884;2023-06-10T13:06:06;30.40;65.50
53045;DHT22;38930;52.766;6.884;2023-06-10T13:08:32;30.50;66.30
53045;DHT22;38930;52.766;6.884;2023-06-10T13:10:58;30.40;62.90
53045;DHT22;38930;52.766;6.884;2023-06-10T13:13:24;30.30;64.10
53045;DHT22;38930;52.766;6.884;2023-06-10T13:15:51;30.40;64.70
53045;DHT22;38930;52.766;6.884;2023-06-10T13:18:17;30.40;63.80
53045;DHT22;38930;52.766;6.884;2023-06-10T13:20:44;30.40;64.10
53045;DHT22;38930;52.766;6.884;2023-06-10T13:23:10;30.60;64.30
53045;DHT22;38930;52.766;6.884;2023-06-10T13:25:35;30.60;62.70
53045;DHT22;38930;52.766;6.884;2023-06-10T13:28:01;30.70;62.40
53045;DHT22;38930;52.766;6.884;2023-06-10T13:30:28;30.60;62.60
53045;DHT22;38930;52.766;6.884;2023-06-10T13:32:54;30.50;62.10
53045;DHT22;38930;52.766;6.884;2023-06-10T13:35:19;30.50;63.90
53045;DHT22;38930;52.766;6.884;2023-06-10T13:37:45;30.60;63.80
53045;DHT22;38930;52.766;6.884;2023-06-10T13:40:11;30.60;63.80
53045;DHT22;38930;52.766;6.884;2023-06-10T13:42:37;30.70;62.80
53045;DHT22;38930;52.766;6.884;2023-06-10T13:45:04;30.70;61.80
53045;DHT22;38930;52.766;6.884;2023-06-10T13:47:29;30.50;62.10
53045;DHT22;38930;52.766;6.884;2023-06-10T13:49:55;30.50;62.40
53045;DHT22;38930;52.766;6.884;2023-06-10T13:52:20;30.50;61.40
53045;DHT22;38930;52.766;6.884;2023-06-10T13:54:46;30.40;62.40
53045;DHT22;38930;52.766;6.884;2023-06-10T13:57:11;30.40;62.40
53045;DHT22;38930;52.766;6.884;2023-06-10T13:59:37;30.50;62.40
53045;DHT22;38930;52.766;6.884;2023-06-10T14:02:03;30.60;64.40
53045;DHT22;38930;52.766;6.884;2023-06-10T14:04:29;30.70;63.30
53045;DHT22;38930;52.766;6.884;2023-06-10T14:06:54;30.80;63.20
53045;DHT22;38930;52.766;6.884;2023-06-10T14:09:20;30.60;61.20
53045;DHT22;38930;52.766;6.884;2023-06-10T14:11:46;30.60;63.20
53045;DHT22;38930;52.766;6.884;2023-06-10T14:14:12;30.60;62.80
53045;DHT22;38930;52.766;6.884;2023-06-10T14:16:39;30.30;60.50
53045;DHT22;38930;52.766;6.884;2023-06-10T14:19:05;30.30;62.10
53045;DHT22;38930;52.766;6.884;2023-06-10T14:21:30;30.50;61.70
53045;DHT22;38930;52.766;6.884;2023-06-10T14:23:56;30.60;60.10
53045;DHT22;38930;52.766;6.884;2023-06-10T14:26:22;30.60;59.50
53045;DHT22;38930;52.766;6.884;2023-06-10T14:28:48;30.60;54.70
53045;DHT22;38930;52.766;6.884;2023-06-10T14:31:15;30.50;55.30
53045;DHT22;38930;52.766;6.884;2023-06-10T14:33:40;30.60;56.00
53045;DHT22;38930;52.766;6.884;2023-06-10T14:36:08;30.60;55.80
53045;DHT22;38930;52.766;6.884;2023-06-10T14:38:34;30.70;56.40
53045;DHT22;38930;52.766;6.884;2023-06-10T14:41:00;30.80;55.90
53045;DHT22;38930;52.766;6.884;2023-06-10T14:43:25;30.90;56.00
53045;DHT22;38930;52.766;6.884;2023-06-10T14:45:51;30.90;56.60
53045;DHT22;38930;52.766;6.884;2023-06-10T14:48:16;31.00;55.70
53045;DHT22;38930;52.766;6.884;2023-06-10T14:50:42;31.00;57.10
53045;DHT22;38930;52.766;6.884;2023-06-10T14:53:10;30.80;54.40
53045;DHT22;38930;52.766;6.884;2023-06-10T14:55:36;30.70;56.20
53045;DHT22;38930;52.766;6.884;2023-06-10T14:58:01;30.60;54.90
53045;DHT22;38930;52.766;6.884;2023-06-10T15:00:27;30.60;57.40
53045;DHT22;38930;52.766;6.884;2023-06-10T15:02:53;30.60;55.60
53045;DHT22;38930;52.766;6.884;2023-06-10T15:05:21;30.40;55.30
53045;DHT22;38930;52.766;6.884;2023-06-10T15:07:46;30.40;55.80
53045;DHT22;38930;52.766;6.884;2023-06-10T15:10:12;30.30;57.00
53045;DHT22;38930;52.766;6.884;2023-06-10T15:12:38;30.40;56.70
53045;DHT22;38930;52.766;6.884;2023-06-10T15:15:03;30.50;56.60
53045;DHT22;38930;52.766;6.884;2023-06-10T15:17:29;30.50;56.90
53045;DHT22;38930;52.766;6.884;2023-06-10T15:19:55;30.50;55.80
53045;DHT22;38930;52.766;6.884;2023-06-10T15:22:21;30.50;55.90
53045;DHT22;38930;52.766;6.884;2023-06-10T15:24:46;30.50;57.10
53045;DHT22;38930;52.766;6.884;2023-06-10T15:27:12;30.50;56.90
53045;DHT22;38930;52.766;6.884;2023-06-10T15:29:38;30.50;58.00
53045;DHT22;38930;52.766;6.884;2023-06-10T15:32:04;30.50;57.70
53045;DHT22;38930;52.766;6.884;2023-06-10T15:34:29;30.40;56.50
53045;DHT22;38930;52.766;6.884;2023-06-10T15:36:55;30.30;56.20
53045;DHT22;38930;52.766;6.884;2023-06-10T15:39:20;30.30;57.10
53045;DHT22;38930;52.766;6.884;2023-06-10T15:41:46;30.20;57.60
53045;DHT22;38930;52.766;6.884;2023-06-10T15:44:12;30.30;59.00
53045;DHT22;38930;52.766;6.884;2023-06-10T15:46:37;30.50;59.70
53045;DHT22;38930;52.766;6.884;2023-06-10T15:49:03;30.50;58.40
53045;DHT22;38930;52.766;6.884;2023-06-10T15:51:29;30.30;58.30
53045;DHT22;38930;52.766;6.884;2023-06-10T15:53:55;30.30;56.70
53045;DHT22;38930;52.766;6.884;2023-06-10T15:56:21;30.30;59.70
53045;DHT22;38930;52.766;6.884;2023-06-10T15:58:48;30.30;57.30
53045;DHT22;38930;52.766;6.884;2023-06-10T16:01:13;30.30;57.50
53045;DHT22;38930;52.766;6.884;2023-06-10T16:03:40;30.30;58.60
53045;DHT22;38930;52.766;6.884;2023-06-10T16:06:06;30.30;56.40
53045;DHT22;38930;52.766;6.884;2023-06-10T16:08:31;30.20;54.90
53045;DHT22;38930;52.766;6.884;2023-06-10T16:10:57;30.30;56.40